createdAt,value
2022-11-28T00:01:35.539Z,72.40
2022-11-28T00:06:32.021Z,72.38
2022-11-28T00:11:28.929Z,72.36
2022-11-28T00:16:25.573Z,72.42
2022-11-28T00:21:22.889Z,71.99
2022-11-28T00:26:28.098Z,72.29
2022-11-28T00:31:26.828Z,72.19
2022-11-28T00:36:25.180Z,72.15
2022-11-28T00:41:28.809Z,71.90
2022-11-28T00:46:25.933Z,71.76
2022-11-28T00:51:31.621Z,72.08
2022-11-28T00:56:31.068Z,71.69
2022-11-28T01:01:33.807Z,71.78
2022-11-28T01:06:33.068Z,71.86
2022-11-28T01:11:30.238Z,71.48
2022-11-28T01:16:27.982Z,71.79
2022-11-28T01:21:25.194Z,71.20
2022-11-28T01:26:24.901Z,71.48
2022-11-28T01:31:24.742Z,71.24
2022-11-28T01:36:22.185Z,71.38
2022-11-28T01:41:22.442Z,70.97
2022-11-28T01:46:19.136Z,71.06
2022-11-28T01:51:15.929Z,71.17
2022-11-28T01:56:19.338Z,71.08
2022-11-28T02:01:17.008Z,71.22
2022-11-28T02:06:15.861Z,70.88
2022-11-28T02:11:22.548Z,70.87
2022-11-28T02:16:40.203Z,71.31
2022-11-28T02:21:59.701Z,71.42
2022-11-28T02:27:08.021Z,71.18
2022-11-28T02:32:25.873Z,71.42
2022-11-28T02:37:47.133Z,71.18
2022-11-28T02:42:50.750Z,71.22
2022-11-28T02:47:56.055Z,71.15
2022-11-28T02:52:56.818Z,71.05
2022-11-28T02:57:54.669Z,71.40
2022-11-28T03:03:06.003Z,71.71
2022-11-28T03:08:08.262Z,71.68
2022-11-28T03:13:22.021Z,71.44
2022-11-28T03:18:23.320Z,71.20
2022-11-28T03:23:23.314Z,71.57
2022-11-28T03:28:23.125Z,70.93
2022-11-28T03:33:21.303Z,71.23
2022-11-28T03:38:24.357Z,70.94
2022-11-28T03:43:25.954Z,71.10
2022-11-28T03:48:35.962Z,70.67
2022-11-28T03:53:59.018Z,70.67
2022-11-28T03:59:01.410Z,70.56
2022-11-28T04:04:24.082Z,70.36
2022-11-28T04:09:36.639Z,70.54
2022-11-28T04:14:42.213Z,70.42
2022-11-28T04:19:51.197Z,69.98
2022-11-28T04:24:56.885Z,70.50
2022-11-28T04:29:56.807Z,70.32
2022-11-28T04:35:10.036Z,70.40
2022-11-28T04:40:12.975Z,70.30
2022-11-28T04:45:17.102Z,70.49
2022-11-28T04:50:14.363Z,70.68
2022-11-28T04:55:19.544Z,70.73
2022-11-28T05:00:18.963Z,70.49
2022-11-28T05:05:21.819Z,70.61
2022-11-28T05:10:19.285Z,70.11
2022-11-28T05:15:19.445Z,70.18
2022-11-28T05:20:16.016Z,70.64
2022-11-28T05:25:12.930Z,70.86
2022-11-28T05:30:12.609Z,70.64
2022-11-28T05:35:10.473Z,70.74
2022-11-28T05:40:07.731Z,70.78
2022-11-28T05:45:04.614Z,70.52
2022-11-28T05:50:38.485Z,70.86
2022-11-28T06:07:32.849Z,70.79
2022-11-28T07:03:12.183Z,69.95
2022-11-28T07:25:37.315Z,69.44
2022-11-28T08:31:31.909Z,69.43
2022-11-28T09:02:02.268Z,69.01
2022-11-28T09:18:14.690Z,68.50
2022-11-28T09:35:23.273Z,68.38
2022-11-28T10:06:39.110Z,67.67
2022-11-28T11:16:09.756Z,66.43
2022-11-28T16:22:49.245Z,73.39
2022-11-28T17:01:00.021Z,73.82
2022-11-28T17:05:56.701Z,73.65
2022-11-28T17:10:53.374Z,73.55
2022-11-28T17:15:50.104Z,73.86
2022-11-28T17:20:46.776Z,73.48
2022-11-28T17:25:44.416Z,73.44
2022-11-28T17:30:41.259Z,73.85
2022-11-28T17:35:43.158Z,73.69
2022-11-28T17:40:42.138Z,74.07
2022-11-28T17:45:38.831Z,73.84
2022-11-28T17:50:35.838Z,73.88
2022-11-28T17:55:32.456Z,73.73
2022-11-28T18:00:29.360Z,74.00
2022-11-28T18:05:25.778Z,74.08
2022-11-28T18:10:22.372Z,73.89
2022-11-28T18:15:19.070Z,74.00
2022-11-28T18:20:15.640Z,73.57
2022-11-28T18:25:12.381Z,73.36
2022-11-28T18:30:09.432Z,73.52
2022-11-28T18:35:06.404Z,73.67
2022-11-28T18:40:08.789Z,73.76
2022-11-28T18:45:06.275Z,73.55
2022-11-28T18:50:02.811Z,73.52
2022-11-28T18:54:59.395Z,73.84
2022-11-28T18:59:56.632Z,73.80
2022-11-28T19:04:53.978Z,73.48
2022-11-28T19:09:50.903Z,73.48
2022-11-28T19:14:47.340Z,73.54
2022-11-28T19:19:44.868Z,73.65
2022-11-28T19:24:41.676Z,73.52
2022-11-28T19:29:38.333Z,73.82
2022-11-28T19:34:34.829Z,73.82
2022-11-28T19:39:31.566Z,73.59
2022-11-28T19:44:29.363Z,73.36
2022-11-28T19:49:25.993Z,73.46
2022-11-28T19:54:22.748Z,73.38
2022-11-28T19:59:19.455Z,73.44
2022-11-28T20:04:16.437Z,73.44
2022-11-28T20:09:13.820Z,73.14
2022-11-28T20:14:14.245Z,73.24
2022-11-28T20:19:11.689Z,73.46
2022-11-28T20:24:08.536Z,73.37
2022-11-28T20:29:06.235Z,73.44
2022-11-28T20:34:03.553Z,73.08
2022-11-28T20:39:00.104Z,73.29
2022-11-28T20:43:58.368Z,72.87
2022-11-28T20:48:57.335Z,73.00
2022-11-28T20:53:54.618Z,72.90
2022-11-28T20:58:51.925Z,72.67
2022-11-28T21:03:48.794Z,72.55
2022-11-28T21:08:45.717Z,72.52
2022-11-28T21:13:42.933Z,72.75
2022-11-28T21:18:41.251Z,72.99
2022-11-28T21:23:38.262Z,72.84
2022-11-28T21:28:35.839Z,73.00
2022-11-28T21:33:32.432Z,72.89
2022-11-28T21:38:30.001Z,72.98
2022-11-28T21:43:28.867Z,72.90
2022-11-28T21:48:25.404Z,72.85
2022-11-28T21:53:21.937Z,72.47
2022-11-28T21:58:21.206Z,72.90
2022-11-28T22:03:22.180Z,72.61
2022-11-28T22:08:20.283Z,72.57
2022-11-28T22:13:16.921Z,72.61
2022-11-28T22:18:13.473Z,72.78
2022-11-28T22:23:10.117Z,72.86
2022-11-28T22:28:06.686Z,72.89
2022-11-28T22:33:03.300Z,72.42
2022-11-28T22:38:00.100Z,72.94
2022-11-28T22:42:56.886Z,72.91
2022-11-28T22:47:53.366Z,72.89
2022-11-28T22:52:49.985Z,72.51
2022-11-28T22:57:46.531Z,72.74
2022-11-28T23:02:43.213Z,72.77
2022-11-28T23:07:39.819Z,72.37
2022-11-28T23:12:36.445Z,72.33
2022-11-28T23:17:33.056Z,72.56
2022-11-28T23:22:29.868Z,72.11
2022-11-28T23:27:28.759Z,72.41
2022-11-28T23:32:25.370Z,72.43
2022-11-28T23:37:21.993Z,72.62
2022-11-28T23:42:18.514Z,72.48
2022-11-28T23:47:15.076Z,72.66
2022-11-28T23:52:11.659Z,72.31
2022-11-28T23:57:08.175Z,72.26
